Time;durP1;ratioP1;P1;durP2;ratioP2;P2;SDS_P1;SDS_P2;PMS_P1;PMS_P2;Temp;Humidity;BMP_temperature;BMP_pressure;BME280_temperature;BME280_humidity;BME280_pressure;Samples;Min_cycle;Max_cycle;Signal;HPM_P1;HPM_P2
2022/02/10 00:14:09;;;;;;;10.23;6.40;;;;;;;3.27;69.68;94965.44;5065266;28;20066;-76
2022/02/10 00:17:02;;;;;;;9.07;5.63;;;;;;;3.29;68.94;94966.78;5065134;28;20076;-76
2022/02/10 00:24:59;;;;;;;19.33;8.30;;;;;;;3.20;66.91;94973.50;5065173;28;20013;-72
2022/02/10 00:35:38;;;;;;;17.60;7.68;;;;;;;3.13;67.65;94972.84;5064976;28;20028;-72
2022/02/10 00:38:03;;;;;;;17.60;7.78;;;;;;;3.10;66.29;94968.06;5064775;28;20025;-73
2022/02/10 00:40:31;;;;;;;17.60;7.30;;;;;;;2.99;66.90;94983.72;5064575;28;20051;-75
2022/02/10 00:42:59;;;;;;;24.48;9.85;;;;;;;2.93;66.75;94971.50;5064668;28;20372;-74
2022/02/10 00:45:30;;;;;;;20.83;10.10;;;;;;;2.81;67.15;94968.91;5064782;28;20263;-74
2022/02/10 00:48:03;;;;;;;24.00;11.18;;;;;;;2.81;66.89;94973.38;5064600;28;20020;-75
2022/02/10 00:50:30;;;;;;;16.33;8.25;;;;;;;2.71;66.72;94965.31;5064540;28;20131;-75
2022/02/10 00:53:04;;;;;;;18.58;8.75;;;;;;;2.69;66.49;94972.66;5064438;28;20020;-75
2022/02/10 00:55:33;;;;;;;18.15;9.27;;;;;;;2.59;66.57;94975.88;5064494;28;20040;-75
2022/02/10 00:57:59;;;;;;;17.65;7.82;;;;;;;2.50;66.66;94972.81;5064463;28;20039;-76
2022/02/10 01:13:57;;;;;;;14.35;6.53;;;;;;;2.15;67.03;94968.47;5063959;28;20093;-74
2022/02/10 01:29:32;;;;;;;14.95;7.45;;;;;;;2.00;68.46;94962.91;5063904;28;20028;-74
2022/02/10 01:30:05;;;;;;;14.88;7.00;;;;;;;1.93;68.51;94975.38;5063562;28;20044;-74
2022/02/10 01:32:30;;;;;;;12.85;7.15;;;;;;;1.87;68.35;94974.44;5063692;28;20310;-73
2022/02/10 01:34:56;;;;;;;16.48;9.05;;;;;;;1.86;68.60;94972.88;5063857;28;20043;-73
2022/02/10 01:37:21;;;;;;;15.23;8.32;;;;;;;1.80;68.76;94961.44;5063908;28;20256;-73
2022/02/10 01:40:06;;;;;;;13.98;8.57;;;;;;;1.77;69.10;94961.91;5063405;28;20025;-73
2022/02/10 02:04:13;;;;;;;21.70;11.80;;;;;;;1.42;69.88;94945.38;5063047;28;20118;-72
2022/02/10 02:06:45;;;;;;;26.02;11.43;;;;;;;1.39;70.12;94949.25;5063134;28;20021;-72
2022/02/10 02:09:14;;;;;;;25.92;12.20;;;;;;;1.39;69.97;94944.78;5063152;28;20024;-73
2022/02/10 02:11:41;;;;;;;25.38;11.35;;;;;;;1.36;69.60;94936.56;5062902;28;20086;-72
2022/02/10 02:14:08;;;;;;;28.73;13.23;;;;;;;1.33;69.85;94940.44;5062924;28;20020;-71
2022/02/10 02:16:34;;;;;;;29.25;14.63;;;;;;;1.34;69.66;94942.06;5062822;28;20021;-71
2022/02/10 02:19:00;;;;;;;30.40;14.25;;;;;;;1.34;69.79;94936.81;5062615;28;20021;-72
2022/02/10 02:21:25;;;;;;;28.75;12.63;;;;;;;1.28;69.89;94937.69;5062845;28;20323;-73
2022/02/10 02:23:51;;;;;;;24.55;11.90;;;;;;;1.28;69.93;94934.28;5061271;28;20032;-73
2022/02/10 02:26:23;;;;;;;20.25;10.07;;;;;;;1.23;70.12;94940.22;5062737;28;20028;-73
2022/02/10 02:28:53;;;;;;;17.88;8.30;;;;;;;1.25;69.79;94935.53;5061496;28;20129;-72
2022/02/10 02:31:24;;;;;;;16.83;7.93;;;;;;;1.27;69.40;94944.00;5062755;28;20017;-73
2022/02/10 03:06:40;;;;;;;11.10;4.20;;;;;;;1.00;68.72;94931.28;5062394;28;20025;-74
2022/02/10 03:09:09;;;;;;;11.52;4.57;;;;;;;1.04;68.68;94933.44;5062272;28;20017;-73
2022/02/10 03:11:37;;;;;;;9.60;4.32;;;;;;;1.02;68.99;94938.97;5061911;28;20044;-73
2022/02/10 03:14:10;;;;;;;11.68;4.68;;;;;;;1.07;68.88;94933.81;5061965;28;20032;-74
2022/02/10 04:00:20;;;;;;;9.10;4.53;;;;;;;0.96;69.36;94956.41;5065264;28;20081;-74
2022/02/10 04:20:53;;;;;;;11.47;6.30;;;;;;;0.99;68.59;94936.75;5064273;28;20044;-74
2022/02/10 04:23:34;;;;;;;12.85;6.50;;;;;;;0.98;68.82;94941.22;5065146;28;20279;-73
2022/02/10 05:14:46;;;;;;;13.90;7.00;;;;;;;0.93;69.62;94962.09;5064433;28;20055;-73
2022/02/10 05:19:25;;;;;;;11.75;6.85;;;;;;;0.92;69.72;94960.50;5063941;28;20033;-73
2022/02/10 05:33:14;;;;;;;11.20;6.35;;;;;;;0.86;68.88;94961.41;5064068;28;20365;-74
2022/02/10 05:35:47;;;;;;;11.68;6.35;;;;;;;0.81;69.06;94974.38;5064170;28;20021;-74
2022/02/10 05:38:34;;;;;;;15.10;6.90;;;;;;;0.82;68.95;94968.13;5064109;28;20092;-74
2022/02/10 05:54:04;;;;;;;16.67;6.78;;;;;;;0.96;69.50;94984.50;5063436;28;20024;-74
2022/02/10 05:56:40;;;;;;;15.23;7.45;;;;;;;1.01;69.25;94989.84;5063492;28;20214;-73
2022/02/10 06:53:05;;;;;;;34.03;15.85;;;;;;;2.31;67.91;94995.09;5062382;28;20539;-73
2022/02/10 07:03:56;;;;;;;49.35;22.58;;;;;;;2.49;68.80;95005.44;5063358;28;20063;-71
2022/02/10 07:09:32;;;;;;;77.38;33.00;;;;;;;2.49;69.35;95005.44;5062230;28;20227;-71
2022/02/10 08:04:36;;;;;;;24.77;11.20;;;;;;;3.51;67.70;94998.50;5061595;28;20082;-72
2022/02/10 09:03:16;;;;;;;44.22;14.48;;;;;;;4.83;63.41;94990.66;5064742;28;20056;-75
2022/02/10 09:16:36;;;;;;;35.13;15.20;;;;;;;5.25;63.23;94994.50;5045122;28;20055;-73
2022/02/10 09:59:28;;;;;;;28.63;15.88;;;;;;;6.50;59.07;94952.66;5063684;28;20021;-85
2022/02/10 10:02:02;;;;;;;33.78;15.90;;;;;;;6.62;59.10;94950.56;5063344;28;20092;-82
2022/02/10 10:04:45;;;;;;;33.17;15.93;;;;;;;6.77;58.30;94947.94;5063083;28;20041;-78
2022/02/10 10:07:28;;;;;;;35.33;16.98;;;;;;;6.93;57.65;94946.13;5063788;28;20040;-87
2022/02/10 10:21:28;;;;;;;31.05;16.45;;;;;;;7.21;57.18;94923.63;5063023;28;20064;-85
2022/02/10 10:24:19;;;;;;;26.88;17.13;;;;;;;7.36;56.22;94919.38;5063050;28;20214;-80
2022/02/10 10:27:14;;;;;;;38.35;16.60;;;;;;;7.33;55.48;94927.88;5063081;28;20227;-80
2022/02/10 10:54:34;;;;;;;34.72;17.40;;;;;;;8.17;53.92;94883.88;5063568;28;20025;-80
2022/02/10 10:57:07;;;;;;;30.90;17.67;;;;;;;8.07;53.66;94878.59;5062102;28;20251;-82
2022/02/10 10:59:54;;;;;;;37.10;18.33;;;;;;;8.07;54.17;94878.59;5062556;28;20036;-82
2022/02/10 11:48:10;;;;;;;41.22;19.20;;;;;;;9.35;50.47;94808.63;5062718;28;20104;-77
2022/02/10 13:26:11;;;;;;;75.53;23.60;;;;;;;12.38;43.62;94745.91;5064189;28;20083;-78
2022/02/10 14:13:29;;;;;;;39.92;21.25;;;;;;;13.69;39.58;94711.81;5063640;28;20051;-79
2022/02/10 14:18:24;;;;;;;36.40;19.50;;;;;;;13.65;40.21;94708.97;5063714;28;20079;-81
2022/02/10 14:26:02;;;;;;;44.58;21.73;;;;;;;13.77;40.12;94707.59;5063128;28;20039;-81
2022/02/10 14:28:28;;;;;;;40.25;20.88;;;;;;;13.82;40.01;94710.91;5062968;28;20059;-81
2022/02/10 14:30:55;;;;;;;36.60;19.13;;;;;;;13.85;39.86;94709.50;5062849;28;20021;-87
2022/02/10 14:33:27;;;;;;;39.65;18.50;;;;;;;13.82;39.48;94710.91;5062703;28;20040;-82
2022/02/10 14:36:09;;;;;;;40.00;19.27;;;;;;;13.73;39.87;94702.06;5063070;28;20049;-86
2022/02/10 15:29:10;;;;;;;75.93;33.40;;;;;;;9.56;48.06;94678.00;5062065;28;20036;-81
2022/02/10 15:54:26;;;;;;;51.25;20.33;;;;;;;8.13;50.33;94665.09;5066099;28;20021;-77
2022/02/10 16:17:56;;;;;;;60.03;21.75;;;;;;;7.03;51.26;94675.75;5064935;28;20036;-78
2022/02/10 16:20:28;;;;;;;58.65;23.45;;;;;;;6.98;51.38;94675.78;5064831;28;20021;-78
2022/02/10 16:23:02;;;;;;;63.58;24.38;;;;;;;6.90;51.58;94670.22;5062457;28;20051;-78
2022/02/10 16:25:32;;;;;;;62.28;24.05;;;;;;;6.90;51.41;94672.88;5063524;28;20133;-78
2022/02/10 16:30:42;;;;;;;66.85;26.45;;;;;;;6.78;51.76;94679.28;5064077;28;20370;-77
2022/02/10 16:33:07;;;;;;;75.55;26.40;;;;;;;6.70;51.95;94681.69;5064565;28;20025;-78
2022/02/10 16:35:33;;;;;;;66.78;25.40;;;;;;;6.66;51.98;94680.66;5064949;28;20130;-77
2022/02/10 16:37:59;;;;;;;47.38;18.40;;;;;;;6.59;51.70;94679.06;5065262;28;20032;-78
2022/02/10 16:40:24;;;;;;;46.60;19.02;;;;;;;6.58;51.49;94682.75;5064611;28;20032;-78
2022/02/10 16:42:51;;;;;;;42.03;17.27;;;;;;;6.51;51.28;94676.16;5062793;28;20041;-78
2022/02/10 16:45:17;;;;;;;39.85;16.13;;;;;;;6.45;51.38;94680.66;5063746;28;20025;-78
2022/02/10 16:47:43;;;;;;;49.20;18.58;;;;;;;6.41;51.27;94679.59;5064996;28;20032;-78
2022/02/10 16:50:09;;;;;;;51.97;20.23;;;;;;;6.37;51.44;94676.69;5065018;28;20021;-77
2022/02/10 16:52:40;;;;;;;43.67;18.17;;;;;;;6.30;51.75;94683.31;5065105;28;20044;-78
2022/02/10 16:58:02;;;;;;;56.50;22.30;;;;;;;6.23;51.78;94689.69;5064783;28;20036;-78
2022/02/10 17:03:23;;;;;;;56.03;23.00;;;;;;;6.18;51.91;94687.00;5064393;28;20198;-77
2022/02/10 17:14:08;;;;;;;51.83;20.85;;;;;;;6.13;52.81;94699.47;5064194;28;20174;-77
2022/02/10 17:14:08;;;;;;;63.97;23.80;;;;;;;6.06;52.88;94691.78;5064297;28;20041;-78
2022/02/10 17:19:31;;;;;;;65.75;24.02;;;;;;;5.95;53.19;94692.84;5064487;28;20150;-77
2022/02/10 17:27:24;;;;;;;51.03;19.10;;;;;;;5.91;53.35;94694.38;5064347;28;20074;-77
2022/02/10 17:53:38;;;;;;;26.23;10.90;;;;;;;5.61;53.52;94699.34;5063430;28;20070;-83
2022/02/10 17:56:08;;;;;;;19.73;9.40;;;;;;;5.56;52.76;94695.91;5062978;28;20028;-81
2022/02/10 17:58:37;;;;;;;17.45;8.93;;;;;;;5.63;53.30;94701.72;5063539;28;20017;-80
2022/02/10 18:01:04;;;;;;;16.55;8.93;;;;;;;5.68;53.41;94699.13;5061924;28;20049;-78
2022/02/10 18:03:29;;;;;;;17.73;8.90;;;;;;;5.75;53.37;94694.34;5063652;28;20059;-79
2022/02/10 18:08:43;;;;;;;22.67;11.18;;;;;;;5.76;53.39;94693.31;5063162;28;20114;-81
2022/02/10 18:14:03;;;;;;;39.47;18.00;;;;;;;5.69;54.02;94695.41;5063259;28;20223;-79
2022/02/10 18:16:42;;;;;;;40.50;18.15;;;;;;;5.65;54.20;94699.63;5061798;28;20021;-81
2022/02/10 18:19:18;;;;;;;36.70;15.27;;;;;;;5.61;54.62;94694.06;5063152;28;20100;-79
2022/02/10 19:01:34;;;;;;;30.33;12.15;;;;;;;5.62;53.92;94710.75;5062938;28;20270;-81
2022/02/10 19:08:06;;;;;;;26.90;12.15;;;;;;;5.56;53.82;94720.50;5062291;28;20021;-80
2022/02/10 19:10:43;;;;;;;35.17;14.90;;;;;;;5.59;53.33;94721.81;5063073;28;20066;-79
2022/02/10 19:13:09;;;;;;;41.22;14.70;;;;;;;5.61;53.54;94725.00;5062126;28;20120;-79
2022/02/10 19:15:35;;;;;;;34.20;15.20;;;;;;;5.58;54.33;94728.97;5062451;28;20043;-81
2022/02/10 19:18:06;;;;;;;31.50;15.23;;;;;;;5.53;54.28;94720.22;5062156;28;20250;-79
2022/02/10 19:20:33;;;;;;;28.58;13.15;;;;;;;5.58;53.95;94722.91;5062135;28;20310;-79
2022/02/10 19:22:59;;;;;;;33.35;12.60;;;;;;;5.53;53.98;94725.50;5062137;28;20200;-79
2022/02/10 19:25:25;;;;;;;25.85;12.23;;;;;;;5.46;54.18;94730.25;5061828;28;20020;-80
2022/02/10 19:27:50;;;;;;;28.67;12.95;;;;;;;5.39;54.31;94730.47;5061942;28;20020;-79
2022/02/10 19:30:22;;;;;;;45.08;19.67;;;;;;;5.33;54.51;94729.69;5060730;28;20092;-81
2022/02/10 19:32:54;;;;;;;57.38;25.23;;;;;;;5.27;54.57;94729.91;5061993;28;20052;-81
2022/02/10 19:35:22;;;;;;;56.88;23.55;;;;;;;5.24;54.61;94739.16;5062205;28;20055;-82
2022/02/10 19:37:54;;;;;;;50.15;19.88;;;;;;;5.20;54.61;94746.78;5060670;28;20071;-82
2022/02/10 19:40:20;;;;;;;45.22;18.55;;;;;;;5.12;54.70;94738.56;5062005;28;20029;-80
2022/02/10 19:42:47;;;;;;;42.40;17.00;;;;;;;5.10;54.92;94732.75;5062075;28;20315;-80
2022/02/10 19:45:13;;;;;;;38.42;17.77;;;;;;;5.01;55.21;94733.22;5062044;28;20021;-80
2022/02/10 19:47:40;;;;;;;46.15;19.58;;;;;;;4.99;55.39;94734.53;5062059;28;20028;-81
2022/02/10 19:50:12;;;;;;;65.18;26.30;;;;;;;4.94;55.67;94742.41;5062224;28;20280;-81
2022/02/10 19:52:41;;;;;;;70.82;28.25;;;;;;;4.90;55.78;94736.84;5062280;28;20024;-81
2022/02/10 19:55:10;;;;;;;73.20;28.23;;;;;;;4.78;56.35;94729.13;5061633;28;20205;-81
2022/02/10 19:57:38;;;;;;;79.38;29.38;;;;;;;4.72;56.48;94722.22;5060595;28;20091;-80
2022/02/10 20:00:08;;;;;;;91.85;32.55;;;;;;;4.71;56.49;94722.47;5061392;28;20063;-81
2022/02/10 20:02:34;;;;;;;106.78;36.97;;;;;;;4.63;56.68;94716.63;5061389;28;20236;-81
2022/02/10 20:04:59;;;;;;;105.40;40.00;;;;;;;4.61;56.89;94721.34;5061757;28;20071;-81
2022/02/10 20:07:25;;;;;;;51.00;20.75;;;;;;;4.58;57.08;94719.22;5061686;28;20055;-82
2022/02/10 20:09:51;;;;;;;36.45;16.35;;;;;;;4.54;57.21;94734.00;5061948;28;20131;-81
2022/02/10 20:12:16;;;;;;;41.42;18.55;;;;;;;4.53;57.29;94721.81;5060575;28;20158;-81
2022/02/10 20:14:42;;;;;;;44.25;19.77;;;;;;;4.51;57.93;94733.69;5061687;28;20044;-80
2022/02/10 20:17:07;;;;;;;49.70;21.63;;;;;;;4.42;58.07;94736.00;5061781;28;20020;-81
2022/02/10 20:19:33;;;;;;;53.00;21.90;;;;;;;4.39;58.17;94731.22;5065081;28;20021;-81
2022/02/10 20:21:59;;;;;;;51.45;19.95;;;;;;;4.31;58.52;94736.97;5064290;28;20025;-81
2022/02/10 20:24:24;;;;;;;58.15;21.75;;;;;;;4.27;58.52;94733.25;5065351;28;20100;-81
2022/02/10 20:26:50;;;;;;;56.65;23.95;;;;;;;4.22;58.84;94729.50;5065290;28;20106;-80
2022/02/10 20:29:16;;;;;;;105.60;42.35;;;;;;;4.20;59.00;94736.09;5064823;28;20307;-80
2022/02/10 20:31:41;;;;;;;117.40;43.47;;;;;;;4.20;58.95;94734.25;5065152;28;20027;-80
2022/02/10 20:34:09;;;;;;;100.07;40.30;;;;;;;4.21;58.83;94733.22;5065166;28;20215;-81
2022/02/10 20:36:35;;;;;;;80.82;32.67;;;;;;;4.17;58.67;94729.50;5065025;28;20021;-81
2022/02/10 20:39:03;;;;;;;48.88;22.55;;;;;;;4.18;58.72;94725.78;5064986;28;20343;-82
2022/02/10 20:41:32;;;;;;;41.50;19.50;;;;;;;4.20;58.51;94717.63;5064805;28;20031;-80
2022/02/10 20:44:00;;;;;;;54.40;21.60;;;;;;;4.17;58.67;94721.56;5064895;28;20084;-81
2022/02/10 20:46:30;;;;;;;53.45;24.65;;;;;;;4.14;58.87;94710.72;5064895;28;20063;-80
2022/02/10 20:48:57;;;;;;;54.25;23.67;;;;;;;4.10;58.65;94712.28;5063789;28;20095;-80
2022/02/10 20:51:22;;;;;;;50.85;23.35;;;;;;;4.06;58.96;94711.97;5064613;28;20020;-81
2022/02/10 20:53:50;;;;;;;63.95;26.55;;;;;;;4.04;59.04;94708.78;5064843;28;20063;-81
2022/02/10 20:56:19;;;;;;;63.85;26.77;;;;;;;4.03;59.19;94699.28;5064813;28;20021;-81
2022/02/10 20:58:50;;;;;;;80.60;31.05;;;;;;;4.02;59.17;94692.41;5064725;28;20307;-80
2022/02/10 21:01:15;;;;;;;91.00;34.25;;;;;;;4.00;59.53;94691.88;5064453;28;20100;-81
2022/02/10 21:03:43;;;;;;;89.97;32.08;;;;;;;4.02;59.30;94690.56;5064420;28;20393;-77
2022/02/10 21:06:21;;;;;;;94.65;30.63;;;;;;;3.98;59.34;94675.50;5064710;28;20248;-79
2022/02/10 21:08:58;;;;;;;90.45;33.05;;;;;;;3.94;59.71;94674.41;5064506;28;20027;-80
2022/02/10 21:11:26;;;;;;;92.43;30.65;;;;;;;3.91;59.81;94682.81;5063774;28;20045;-79
2022/02/10 21:13:51;;;;;;;95.93;31.48;;;;;;;3.88;59.98;94672.78;5063588;28;20078;-79
2022/02/10 21:16:17;;;;;;;83.38;30.25;;;;;;;3.88;60.17;94673.56;5063865;28;20349;-81
2022/02/10 21:18:44;;;;;;;77.72;27.00;;;;;;;3.87;60.46;94679.91;5063645;28;20095;-82
2022/02/10 21:21:14;;;;;;;80.10;28.85;;;;;;;3.86;60.44;94677.50;5064305;28;20231;-81
2022/02/10 21:26:10;;;;;;;67.85;23.05;;;;;;;3.82;60.23;94680.63;5064269;28;20020;-84
2022/02/10 21:28:39;;;;;;;60.67;21.65;;;;;;;3.84;60.40;94676.97;5063931;28;20025;-81
2022/02/10 21:31:07;;;;;;;53.47;22.95;;;;;;;3.82;60.52;94667.44;5063987;28;20310;-82
2022/02/10 21:38:33;;;;;;;57.90;20.35;;;;;;;3.87;59.97;94653.53;5064009;28;20028;-83
2022/02/10 22:18:39;;;;;;;26.75;12.85;;;;;;;3.65;59.43;94653.59;5063151;28;20023;-80
2022/02/10 22:21:06;;;;;;;24.88;11.82;;;;;;;3.58;59.20;94645.06;5062924;28;20313;-81
2022/02/10 22:23:35;;;;;;;24.13;11.88;;;;;;;3.59;59.57;94651.94;5063207;28;20043;-80
2022/02/10 22:26:05;;;;;;;30.48;12.20;;;;;;;3.59;59.91;94659.84;5063110;28;20092;-80
2022/02/10 22:28:47;;;;;;;27.25;12.98;;;;;;;3.64;59.83;94648.56;5061871;28;20033;-80
2022/02/10 22:36:23;;;;;;;26.95;13.75;;;;;;;3.68;60.43;94652.28;5062913;28;20032;-81
2022/02/10 22:38:53;;;;;;;27.33;13.80;;;;;;;3.68;60.39;94634.63;5062973;28;20033;-81
2022/02/10 22:41:19;;;;;;;31.92;13.93;;;;;;;3.70;60.52;94644.91;5062405;28;20024;-81
2022/02/10 22:43:47;;;;;;;29.50;13.60;;;;;;;3.68;60.67;94642.53;5062883;28;20104;-82
2022/02/10 22:46:14;;;;;;;29.50;13.30;;;;;;;3.69;60.39;94641.50;5062832;28;20021;-81
2022/02/10 22:48:42;;;;;;;33.03;13.40;;;;;;;3.67;60.51;94635.69;5061677;28;20055;-80
2022/02/10 22:51:08;;;;;;;25.83;12.32;;;;;;;3.65;60.76;94637.78;5062703;28;20032;-81
2022/02/10 22:53:33;;;;;;;37.70;14.20;;;;;;;3.61;60.73;94634.84;5063081;28;20028;-81
2022/02/10 22:55:59;;;;;;;36.63;15.35;;;;;;;3.62;60.61;94627.72;5062858;28;20337;-81
2022/02/10 22:58:24;;;;;;;42.70;15.27;;;;;;;3.64;60.23;94635.38;5062975;28;20095;-82
2022/02/10 23:00:50;;;;;;;42.20;16.88;;;;;;;3.56;60.10;94624.25;5062946;28;20056;-82
2022/02/10 23:03:21;;;;;;;53.63;18.33;;;;;;;3.56;60.17;94629.53;5062738;28;20028;-82
2022/02/10 23:05:48;;;;;;;58.03;18.77;;;;;;;3.55;60.42;94629.78;5062721;28;20128;-81
2022/02/10 23:08:14;;;;;;;50.03;19.02;;;;;;;3.51;60.76;94623.41;5062718;28;20035;-82
2022/02/10 23:10:49;;;;;;;47.78;19.48;;;;;;;3.49;60.83;94622.88;5063175;28;20222;-81
2022/02/10 23:13:26;;;;;;;36.75;16.70;;;;;;;3.47;61.56;94633.66;5061344;28;20138;-81
2022/02/10 23:15:52;;;;;;;43.10;15.15;;;;;;;3.45;61.29;94627.03;5062515;28;20274;-81
2022/02/10 23:18:22;;;;;;;40.60;17.98;;;;;;;3.45;61.25;94629.69;5062643;28;20361;-80
2022/02/10 23:20:49;;;;;;;34.85;16.40;;;;;;;3.40;61.46;94625.94;5062724;28;20032;-81
2022/02/10 23:23:16;;;;;;;37.90;16.52;;;;;;;3.41;61.21;94614.34;5061431;28;20218;-81
2022/02/10 23:25:44;;;;;;;51.88;18.52;;;;;;;3.37;60.58;94605.34;5061993;28;20208;-81
2022/02/10 23:28:14;;;;;;;46.80;17.73;;;;;;;3.31;60.53;94601.06;5062595;28;20025;-81
2022/02/10 23:30:40;;;;;;;36.47;15.95;;;;;;;3.31;61.03;94616.09;5062754;28;20017;-79
2022/02/10 23:33:19;;;;;;;36.88;15.95;;;;;;;3.27;61.33;94599.97;5062480;28;20052;-80
2022/02/10 23:36:40;;;;;;;35.83;14.95;;;;;;;3.28;61.40;94595.50;5062560;28;20033;-79
2022/02/10 23:38:39;;;;;;;36.15;15.40;;;;;;;3.21;61.48;94601.75;5061924;28;20033;-80
2022/02/10 23:43:31;;;;;;;35.53;15.85;;;;;;;3.17;60.93;94600.66;5062346;28;20024;-80
2022/02/10 23:45:56;;;;;;;27.63;12.88;;;;;;;3.19;61.55;94605.69;5061763;28;20054;-79
2022/02/10 23:48:21;;;;;;;33.90;12.95;;;;;;;3.25;61.71;94615.25;5062502;28;20044;-80
2022/02/10 23:50:47;;;;;;;36.65;13.82;;;;;;;3.25;61.64;94614.47;5062429;28;20016;-81
2022/02/10 23:53:13;;;;;;;33.72;13.68;;;;;;;3.24;61.53;94613.66;5065261;28;20044;-82
2022/02/10 23:55:40;;;;;;;28.00;14.20;;;;;;;3.25;62.04;94615.25;5065983;28;20044;-81
2022/02/10 23:58:22;;;;;;;32.97;15.30;;;;;;;3.23;61.96;94614.69;5066170;28;20090;-82
